Time,TemperatureF,DewpointF,PressureIn,WindDirection,WindDirectionDegrees,WindSpeedMPH,WindSpeedGustMPH,Humidity,HourlyPrecipIn,Conditions,Clouds,dailyrainin,SoftwareType,DateUTC
2013-07-13 00:43:00,67.0,66.0,30.15,ENE,58,2.0,6.0,96,0.00,,,-99.99,,2013-07-13 04:43:00,
2013-07-13 00:52:00,67.0,66.0,30.16,NNE,17,0.0,6.0,96,0.00,,,-99.99,,2013-07-13 04:52:00,
2013-07-13 01:01:00,67.0,66.0,30.16,NNE,17,0.0,6.0,96,0.00,,,-99.99,,2013-07-13 05:01:00,
2013-07-13 01:11:00,67.0,66.0,30.15,ENE,61,0.0,6.0,96,0.00,,,-99.99,,2013-07-13 05:11:00,
2013-07-13 01:42:00,67.0,66.0,30.14,NE,44,2.0,8.0,96,0.00,,,-99.99,,2013-07-13 05:42:00,
2013-07-13 01:52:00,67.0,66.0,30.14,NE,44,2.0,8.0,96,0.00,,,-99.99,,2013-07-13 05:52:00,
2013-07-13 02:02:00,66.0,65.0,30.14,ENE,68,4.0,11.0,98,0.00,,,-99.99,,2013-07-13 06:02:00,
2013-07-13 02:11:00,66.0,65.0,30.14,ENE,77,3.0,10.0,98,0.00,,,-99.99,,2013-07-13 06:11:00,
2013-07-13 02:32:00,66.0,65.0,30.14,NE,54,0.0,5.0,98,0.00,,,-99.99,,2013-07-13 06:32:00,
2013-07-13 02:43:00,66.0,65.0,30.14,NE,54,0.0,5.0,98,0.00,,,-99.99,,2013-07-13 06:43:00,
2013-07-13 02:52:00,66.0,65.0,30.14,ENE,67,3.0,11.0,98,0.00,,,-99.99,,2013-07-13 06:52:00,
2013-07-13 03:02:00,66.0,66.0,30.14,ENE,62,0.0,7.0,99,0.00,,,-99.99,,2013-07-13 07:02:00,
2013-07-13 03:11:00,66.0,66.0,30.14,ENE,75,0.0,4.0,99,0.00,,,-99.99,,2013-07-13 07:11:00,
2013-07-13 03:22:00,65.0,65.0,30.14,ENE,75,0.0,0.0,99,0.00,,,-99.99,,2013-07-13 07:22:00,
2013-07-13 03:33:00,65.0,65.0,30.14,NE,46,0.0,3.0,99,0.00,,,-99.99,,2013-07-13 07:33:00,
2013-07-13 03:44:00,65.0,65.0,30.14,NE,46,0.0,3.0,99,0.00,,,-99.99,,2013-07-13 07:44:00,
2013-07-13 03:53:00,65.0,65.0,30.14,NE,45,0.0,0.0,99,0.00,,,-99.99,,2013-07-13 07:53:00,
2013-07-13 04:02:00,65.0,65.0,30.14,NE,45,0.0,0.0,99,0.00,,,-99.99,,2013-07-13 08:02:00,
2013-07-13 04:12:00,65.0,65.0,30.14,NE,45,0.0,0.0,99,0.00,,,-99.99,,2013-07-13 08:12:00,
2013-07-13 04:22:00,65.0,65.0,30.14,NE,45,0.0,0.0,99,0.00,,,-99.99,,2013-07-13 08:22:00,
2013-07-13 04:33:00,65.0,65.0,30.14,NE,45,0.0,0.0,99,0.00,,,-99.99,,2013-07-13 08:33:00,
2013-07-13 04:43:00,65.0,65.0,30.14,NE,45,0.0,0.0,99,0.00,,,-99.99,,2013-07-13 08:43:00,
2013-07-13 04:52:00,65.0,65.0,30.14,NE,45,0.0,0.0,99,0.00,,,-99.99,,2013-07-13 08:52:00,
2013-07-13 05:02:00,65.0,65.0,30.14,NE,45,0.0,0.0,99,0.00,,,-99.99,,2013-07-13 09:02:00,
2013-07-13 05:22:00,64.0,64.0,30.14,NE,45,0.0,0.0,99,0.00,,,-99.99,,2013-07-13 09:22:00,
2013-07-13 05:33:00,64.0,64.0,30.14,NE,45,0.0,0.0,100,0.00,,,-99.99,,2013-07-13 09:33:00,
2013-07-13 05:43:00,65.0,65.0,30.14,NE,45,0.0,0.0,100,0.00,,,-99.99,,2013-07-13 09:43:00,
2013-07-13 05:53:00,65.0,65.0,30.14,NE,45,0.0,0.0,100,0.00,,,-99.99,,2013-07-13 09:53:00,
2013-07-13 06:01:00,65.0,65.0,30.15,NE,34,0.0,0.0,100,0.00,,,-99.99,,2013-07-13 10:01:00,
2013-07-13 06:22:00,65.0,65.0,30.15,NE,34,0.0,0.0,100,0.00,,,-99.99,,2013-07-13 10:22:00,
2013-07-13 06:32:00,65.0,65.0,30.15,NE,34,0.0,0.0,100,0.00,,,-99.99,,2013-07-13 10:32:00,
2013-07-13 06:43:00,65.0,65.0,30.15,NE,34,0.0,0.0,100,0.00,,,-99.99,,2013-07-13 10:43:00,
2013-07-13 06:52:00,65.0,65.0,30.16,NE,34,0.0,0.0,100,0.00,,,-99.99,,2013-07-13 10:52:00,
2013-07-13 07:02:00,65.0,65.0,30.16,NE,34,0.0,0.0,100,0.00,,,-99.99,,2013-07-13 11:02:00,
2013-07-13 07:32:00,66.0,66.0,30.16,NE,34,0.0,0.0,99,0.00,,,-99.99,,2013-07-13 11:32:00,
2013-07-13 07:43:00,66.0,66.0,30.18,NE,34,0.0,0.0,99,0.00,,,-99.99,,2013-07-13 11:43:00,
2013-07-13 07:52:00,66.0,66.0,30.18,NE,34,0.0,0.0,99,0.00,,,-99.99,,2013-07-13 11:52:00,
2013-07-13 08:02:00,66.0,66.0,30.18,NE,34,0.0,0.0,99,0.00,,,-99.99,,2013-07-13 12:02:00,
2013-07-13 08:12:00,67.0,67.0,30.18,NE,34,0.0,0.0,99,0.00,,,-99.99,,2013-07-13 12:12:00,
2013-07-13 08:22:00,67.0,67.0,30.19,NE,48,0.0,5.0,99,0.00,,,-99.99,,2013-07-13 12:22:00,
2013-07-13 08:32:00,67.0,67.0,30.19,NE,48,0.0,5.0,99,0.00,,,-99.99,,2013-07-13 12:32:00,
2013-07-13 08:43:00,67.0,67.0,30.19,NE,48,0.0,5.0,99,0.00,,,-99.99,,2013-07-13 12:43:00,
2013-07-13 08:52:00,67.0,67.0,30.20,ENE,63,0.0,3.0,99,0.00,,,-99.99,,2013-07-13 12:52:00,
2013-07-13 09:01:00,67.0,67.0,30.20,ENE,63,0.0,3.0,99,0.00,,,-99.99,,2013-07-13 13:01:00,
2013-07-13 09:12:00,67.0,67.0,30.20,ENE,63,0.0,3.0,99,0.00,,,-99.99,,2013-07-13 13:12:00,
2013-07-13 09:53:00,68.0,67.0,30.22,ENE,59,2.0,7.0,98,0.00,,,-99.99,,2013-07-13 13:53:00,
2013-07-13 10:02:00,68.0,67.0,30.22,ENE,76,2.0,8.0,98,0.00,,,-99.99,,2013-07-13 14:02:00,
2013-07-13 10:32:00,69.0,68.0,30.22,ENE,57,0.0,1.0,97,0.00,,,-99.99,,2013-07-13 14:32:00,
2013-07-13 10:43:00,69.0,68.0,30.22,ENE,57,0.0,1.0,97,0.00,,,-99.99,,2013-07-13 14:43:00,
2013-07-13 10:53:00,69.0,68.0,30.22,ENE,61,0.0,6.0,96,0.00,,,-99.99,,2013-07-13 14:53:00,
2013-07-13 11:02:00,69.0,68.0,30.22,ENE,68,2.0,6.0,95,0.00,,,-99.99,,2013-07-13 15:02:00,
2013-07-13 11:12:00,70.0,69.0,30.22,NE,54,3.0,7.0,96,0.00,,,-99.99,,2013-07-13 15:12:00,
2013-07-13 11:33:00,70.0,68.0,30.22,ENE,61,0.0,4.0,94,0.00,,,-99.99,,2013-07-13 15:33:00,
2013-07-13 11:43:00,70.0,68.0,30.22,East,95,0.0,3.0,94,0.00,,,-99.99,,2013-07-13 15:43:00,
2013-07-13 11:53:00,70.0,68.0,30.22,ESE,116,0.0,1.0,94,0.00,,,-99.99,,2013-07-13 15:53:00,
2013-07-13 12:02:00,70.0,68.0,30.23,SE,130,1.0,7.0,94,0.00,,,-99.99,,2013-07-13 16:02:00,
2013-07-13 12:12:00,70.0,68.0,30.23,ESE,103,2.0,7.0,94,0.00,,,-99.99,,2013-07-13 16:12:00,
2013-07-13 12:33:00,70.0,68.0,30.23,SE,124,0.0,2.0,94,0.00,,,-99.99,,2013-07-13 16:33:00,
2013-07-13 12:43:00,70.0,68.0,30.24,ESE,102,0.0,1.0,94,0.00,,,-99.99,,2013-07-13 16:43:00,
2013-07-13 12:53:00,70.0,68.0,30.24,ESE,102,0.0,1.0,94,0.00,,,-99.99,,2013-07-13 16:53:00,
2013-07-13 13:01:00,71.0,69.0,30.24,SE,128,2.0,5.0,93,0.00,,,-99.99,,2013-07-13 17:01:00,
2013-07-13 13:12:00,71.0,69.0,30.24,ESE,120,3.0,9.0,93,0.00,,,-99.99,,2013-07-13 17:12:00,
2013-07-13 13:22:00,71.0,69.0,30.24,ESE,118,2.0,6.0,93,0.00,,,-99.99,,2013-07-13 17:22:00,
2013-07-13 13:33:00,71.0,69.0,30.24,ESE,118,2.0,6.0,93,0.00,,,-99.99,,2013-07-13 17:33:00,
2013-07-13 13:43:00,73.0,70.0,30.24,ESE,111,4.0,7.0,90,0.00,,,-99.99,,2013-07-13 17:43:00,
2013-07-13 13:52:00,73.0,70.0,30.24,ESE,116,4.0,10.0,90,0.00,,,-99.99,,2013-07-13 17:52:00,
2013-07-13 14:01:00,72.0,69.0,30.24,ESE,119,4.0,8.0,91,0.00,,,-99.99,,2013-07-13 18:01:00,
2013-07-13 14:22:00,74.0,70.0,30.23,SE,132,5.0,10.0,88,0.00,,,-99.99,,2013-07-13 18:22:00,
2013-07-13 14:32:00,75.0,71.0,30.23,ESE,107,4.0,9.0,88,0.00,,,-99.99,,2013-07-13 18:32:00,
2013-07-13 14:44:00,75.0,69.0,30.24,SE,135,3.0,9.0,83,0.00,,,-99.99,,2013-07-13 18:44:00,
2013-07-13 14:53:00,75.0,69.0,30.24,SSE,148,2.0,7.0,83,0.00,,,-99.99,,2013-07-13 18:53:00,
2013-07-13 15:02:00,75.0,69.0,30.24,ESE,103,2.0,7.0,83,0.00,,,-99.99,,2013-07-13 19:02:00,
2013-07-13 15:11:00,76.0,69.0,30.24,ESE,119,3.0,8.0,79,0.00,,,-99.99,,2013-07-13 19:11:00,
2013-07-13 15:22:00,76.0,69.0,30.24,East,100,2.0,8.0,80,0.00,,,-99.99,,2013-07-13 19:22:00,
2013-07-13 15:32:00,77.0,70.0,30.24,ESE,111,4.0,9.0,78,0.00,,,-99.99,,2013-07-13 19:32:00,
2013-07-13 15:44:00,76.0,69.0,30.24,ESE,114,5.0,10.0,79,0.00,,,-99.99,,2013-07-13 19:44:00,
2013-07-13 15:52:00,76.0,69.0,30.24,ESE,118,6.0,11.0,79,0.00,,,-99.99,,2013-07-13 19:52:00,
2013-07-13 16:01:00,77.0,69.0,30.24,SE,135,6.0,15.0,77,0.00,,,-99.99,,2013-07-13 20:01:00,
2013-07-13 16:11:00,77.0,69.0,30.24,SE,135,6.0,15.0,77,0.00,,,-99.99,,2013-07-13 20:11:00,
2013-07-13 16:43:00,77.0,69.0,30.24,ESE,114,5.0,9.0,76,0.00,,,-99.99,,2013-07-13 20:43:00,
2013-07-13 16:53:00,78.0,71.0,30.24,ESE,119,3.0,7.0,78,0.00,,,-99.99,,2013-07-13 20:53:00,
2013-07-13 17:02:00,78.0,70.0,30.24,ESE,114,4.0,10.0,77,0.00,,,-99.99,,2013-07-13 21:02:00,
2013-07-13 17:12:00,77.0,70.0,30.24,East,89,3.0,8.0,78,0.00,,,-99.99,,2013-07-13 21:12:00,
2013-07-13 17:22:00,78.0,70.0,30.24,SE,136,4.0,9.0,76,0.00,,,-99.99,,2013-07-13 21:22:00,
2013-07-13 17:32:00,78.0,70.0,30.24,ESE,115,4.0,9.0,76,0.00,,,-99.99,,2013-07-13 21:32:00,
2013-07-13 17:43:00,78.0,70.0,30.24,ESE,114,5.0,9.0,77,0.00,,,-99.99,,2013-07-13 21:43:00,
2013-07-13 17:53:00,78.0,70.0,30.24,ESE,114,5.0,9.0,77,0.00,,,-99.99,,2013-07-13 21:53:00,
2013-07-13 18:01:00,78.0,70.0,30.24,SE,126,4.0,9.0,77,0.00,,,-99.99,,2013-07-13 22:01:00,
2013-07-13 18:12:00,78.0,71.0,30.24,SE,130,4.0,12.0,78,0.00,,,-99.99,,2013-07-13 22:12:00,
2013-07-13 18:22:00,78.0,70.0,30.25,ESE,109,6.0,11.0,77,0.00,,,-99.99,,2013-07-13 22:22:00,
2013-07-13 18:32:00,78.0,71.0,30.25,ESE,118,5.0,10.0,78,0.00,,,-99.99,,2013-07-13 22:32:00,
2013-07-13 18:43:00,77.0,70.0,30.25,SE,129,4.0,9.0,80,0.00,,,-99.99,,2013-07-13 22:43:00,
2013-07-13 19:02:00,77.0,71.0,30.25,SE,127,3.0,8.0,82,0.00,,,-99.99,,2013-07-13 23:02:00,
2013-07-13 19:11:00,76.0,70.0,30.27,East,98,4.0,10.0,83,0.00,,,-99.99,,2013-07-13 23:11:00,
2013-07-13 19:32:00,76.0,71.0,30.27,ESE,110,3.0,7.0,85,0.00,,,-99.99,,2013-07-13 23:32:00,
2013-07-13 19:42:00,75.0,71.0,30.27,East,91,4.0,7.0,87,0.00,,,-99.99,,2013-07-13 23:42:00,
2013-07-13 19:53:00,75.0,71.0,30.27,East,96,3.0,7.0,87,0.00,,,-99.99,,2013-07-13 23:53:00,
2013-07-13 20:01:00,75.0,72.0,30.27,East,92,2.0,7.0,89,0.00,,,-99.99,,2013-07-14 00:01:00,
2013-07-13 20:22:00,74.0,71.0,30.27,East,99,3.0,7.0,90,0.00,,,-99.99,,2013-07-14 00:22:00,
2013-07-13 20:42:00,74.0,71.0,30.27,East,101,3.0,7.0,91,0.00,,,-99.99,,2013-07-14 00:42:00,
2013-07-13 20:53:00,73.0,71.0,30.27,East,101,4.0,9.0,92,0.00,,,-99.99,,2013-07-14 00:53:00,
2013-07-13 21:02:00,73.0,71.0,30.27,East,99,3.0,8.0,92,0.00,,,-99.99,,2013-07-14 01:02:00,
2013-07-13 21:11:00,73.0,71.0,30.27,ESE,117,3.0,7.0,92,0.00,,,-99.99,,2013-07-14 01:11:00,
2013-07-13 21:22:00,73.0,71.0,30.27,East,93,3.0,10.0,93,0.00,,,-99.99,,2013-07-14 01:22:00,
2013-07-13 21:32:00,73.0,71.0,30.28,ENE,78,3.0,13.0,93,0.00,,,-99.99,,2013-07-14 01:32:00,
2013-07-13 21:43:00,73.0,71.0,30.29,ENE,78,1.0,7.0,93,0.00,,,-99.99,,2013-07-14 01:43:00,
2013-07-13 21:52:00,73.0,71.0,30.29,ENE,65,0.0,0.0,93,0.00,,,-99.99,,2013-07-14 01:52:00,
2013-07-13 22:02:00,73.0,71.0,30.29,ENE,65,0.0,0.0,93,0.00,,,-99.99,,2013-07-14 02:02:00,
2013-07-13 22:11:00,73.0,71.0,30.30,NE,56,1.0,6.0,93,0.00,,,-99.99,,2013-07-14 02:11:00,
2013-07-13 22:22:00,73.0,71.0,30.31,NE,34,0.0,3.0,93,0.00,,,-99.99,,2013-07-14 02:22:00,
2013-07-13 22:32:00,73.0,71.0,30.31,NE,45,0.0,5.0,93,0.00,,,-99.99,,2013-07-14 02:32:00,
2013-07-13 22:43:00,73.0,71.0,30.31,ENE,62,1.0,6.0,93,0.00,,,-99.99,,2013-07-14 02:43:00,
2013-07-13 22:53:00,73.0,71.0,30.32,East,95,1.0,6.0,94,0.00,,,-99.99,,2013-07-14 02:53:00,
2013-07-13 23:02:00,73.0,71.0,30.32,East,79,3.0,10.0,93,0.00,,,-99.99,,2013-07-14 03:02:00,
2013-07-13 23:11:00,73.0,71.0,30.32,East,79,3.0,10.0,93,0.00,,,-99.99,,2013-07-14 03:11:00,
2013-07-13 23:22:00,72.0,70.0,30.32,East,90,3.0,8.0,94,0.00,,,-99.99,,2013-07-14 03:22:00,
2013-07-13 23:32:00,72.0,70.0,30.32,East,86,4.0,11.0,95,0.00,,,-99.99,,2013-07-14 03:32:00,
2013-07-13 23:43:00,72.0,70.0,30.32,East,88,4.0,9.0,95,0.00,,,-99.99,,2013-07-14 03:43:00,
2013-07-13 23:53:00,72.0,70.0,30.32,East,96,0.0,5.0,95,0.00,,,-99.99,,2013-07-14 03:53:00,